sensor_id;sensor_type;location;lat;lon;timestamp;P1;durP1;ratioP1;P2;durP2;ratioP2
10957;SDS011;5531;42.570;23.676;2023-01-13T00:00:42;960.33;;;51.25;;
10957;SDS011;5531;42.570;23.676;2023-01-13T00:03:11;870.05;;;52.05;;
10957;SDS011;5531;42.570;23.676;2023-01-13T00:05:40;227.43;;;28.15;;
10957;SDS011;5531;42.570;23.676;2023-01-13T00:08:09;1110.95;;;60.42;;
10957;SDS011;5531;42.570;23.676;2023-01-13T00:10:38;725.80;;;41.13;;
10957;SDS011;5531;42.570;23.676;2023-01-13T00:13:07;961.50;;;57.30;;
10957;SDS011;5531;42.570;23.676;2023-01-13T00:15:39;1194.90;;;65.82;;
10957;SDS011;5531;42.570;23.676;2023-01-13T00:18:08;784.45;;;47.58;;
10957;SDS011;5531;42.570;23.676;2023-01-13T00:20:37;1084.03;;;62.75;;
10957;SDS011;5531;42.570;23.676;2023-01-13T00:23:06;950.20;;;53.80;;
10957;SDS011;5531;42.570;23.676;2023-01-13T00:25:35;1200.07;;;73.47;;
10957;SDS011;5531;42.570;23.676;2023-01-13T00:28:04;968.80;;;57.15;;
10957;SDS011;5531;42.570;23.676;2023-01-13T00:30:34;1049.80;;;60.08;;
10957;SDS011;5531;42.570;23.676;2023-01-13T00:33:06;973.53;;;54.20;;
10957;SDS011;5531;42.570;23.676;2023-01-13T00:35:35;744.60;;;47.95;;
10957;SDS011;5531;42.570;23.676;2023-01-13T00:38:04;1085.95;;;55.03;;
10957;SDS011;5531;42.570;23.676;2023-01-13T00:40:33;1004.92;;;54.65;;
10957;SDS011;5531;42.570;23.676;2023-01-13T00:43:02;745.17;;;45.13;;
10957;SDS011;5531;42.570;23.676;2023-01-13T00:45:58;1139.45;;;58.38;;
10957;SDS011;5531;42.570;23.676;2023-01-13T00:48:30;932.08;;;50.50;;
10957;SDS011;5531;42.570;23.676;2023-01-13T00:51:00;991.08;;;55.53;;
10957;SDS011;5531;42.570;23.676;2023-01-13T00:53:32;773.10;;;45.67;;
10957;SDS011;5531;42.570;23.676;2023-01-13T00:56:02;866.22;;;54.33;;
10957;SDS011;5531;42.570;23.676;2023-01-13T00:58:34;916.13;;;60.08;;
10957;SDS011;5531;42.570;23.676;2023-01-13T01:01:04;776.72;;;44.65;;
10957;SDS011;5531;42.570;23.676;2023-01-13T01:03:37;1161.57;;;64.50;;
10957;SDS011;5531;42.570;23.676;2023-01-13T01:06:07;604.42;;;36.33;;
10957;SDS011;5531;42.570;23.676;2023-01-13T01:08:39;750.25;;;45.85;;
10957;SDS011;5531;42.570;23.676;2023-01-13T01:11:11;963.38;;;53.53;;
10957;SDS011;5531;42.570;23.676;2023-01-13T01:13:41;834.83;;;45.30;;
10957;SDS011;5531;42.570;23.676;2023-01-13T01:16:12;489.75;;;30.23;;
10957;SDS011;5531;42.570;23.676;2023-01-13T01:18:45;544.40;;;32.97;;
10957;SDS011;5531;42.570;23.676;2023-01-13T01:21:16;839.67;;;49.00;;
10957;SDS011;5531;42.570;23.676;2023-01-13T01:23:46;453.58;;;33.05;;
10957;SDS011;5531;42.570;23.676;2023-01-13T01:26:15;182.45;;;19.85;;
10957;SDS011;5531;42.570;23.676;2023-01-13T01:28:46;160.02;;;24.30;;
10957;SDS011;5531;42.570;23.676;2023-01-13T01:31:16;118.90;;;17.98;;
10957;SDS011;5531;42.570;23.676;2023-01-13T01:33:49;291.60;;;23.02;;
10957;SDS011;5531;42.570;23.676;2023-01-13T01:36:19;472.73;;;38.50;;
10957;SDS011;5531;42.570;23.676;2023-01-13T01:38:50;48.92;;;15.27;;
10957;SDS011;5531;42.570;23.676;2023-01-13T01:41:20;193.02;;;21.23;;
10957;SDS011;5531;42.570;23.676;2023-01-13T01:43:51;508.38;;;34.95;;
10957;SDS011;5531;42.570;23.676;2023-01-13T01:46:27;449.10;;;27.67;;
10957;SDS011;5531;42.570;23.676;2023-01-13T01:49:02;501.00;;;31.65;;
10957;SDS011;5531;42.570;23.676;2023-01-13T01:51:38;754.30;;;44.25;;
10957;SDS011;5531;42.570;23.676;2023-01-13T01:54:13;507.02;;;38.90;;
10957;SDS011;5531;42.570;23.676;2023-01-13T01:56:47;839.13;;;53.72;;
10957;SDS011;5531;42.570;23.676;2023-01-13T01:59:17;611.45;;;42.33;;
10957;SDS011;5531;42.570;23.676;2023-01-13T02:01:46;713.28;;;48.70;;
10957;SDS011;5531;42.570;23.676;2023-01-13T02:04:19;953.50;;;61.22;;
10957;SDS011;5531;42.570;23.676;2023-01-13T02:06:55;697.15;;;49.78;;
10957;SDS011;5531;42.570;23.676;2023-01-13T02:09:25;574.63;;;39.17;;
10957;SDS011;5531;42.570;23.676;2023-01-13T02:11:54;518.78;;;34.80;;
10957;SDS011;5531;42.570;23.676;2023-01-13T02:14:36;970.97;;;48.85;;
10957;SDS011;5531;42.570;23.676;2023-01-13T02:17:09;634.13;;;39.63;;
10957;SDS011;5531;42.570;23.676;2023-01-13T02:23:05;843.22;;;47.65;;
10957;SDS011;5531;42.570;23.676;2023-01-13T02:26:12;473.92;;;31.08;;
10957;SDS011;5531;42.570;23.676;2023-01-13T02:29:07;105.60;;;18.83;;
10957;SDS011;5531;42.570;23.676;2023-01-13T02:31:57;458.23;;;30.77;;
10957;SDS011;5531;42.570;23.676;2023-01-13T02:34:34;666.72;;;41.63;;
10957;SDS011;5531;42.570;23.676;2023-01-13T02:37:06;389.27;;;28.50;;
10957;SDS011;5531;42.570;23.676;2023-01-13T02:39:45;823.47;;;53.92;;
10957;SDS011;5531;42.570;23.676;2023-01-13T02:42:21;472.60;;;34.90;;
10957;SDS011;5531;42.570;23.676;2023-01-13T02:45:08;124.78;;;20.73;;
10957;SDS011;5531;42.570;23.676;2023-01-13T02:47:43;282.48;;;23.77;;
10957;SDS011;5531;42.570;23.676;2023-01-13T02:50:16;371.50;;;31.27;;
10957;SDS011;5531;42.570;23.676;2023-01-13T02:52:47;404.33;;;28.80;;
10957;SDS011;5531;42.570;23.676;2023-01-13T02:55:22;48.70;;;17.20;;
10957;SDS011;5531;42.570;23.676;2023-01-13T02:57:56;635.33;;;37.78;;
10957;SDS011;5531;42.570;23.676;2023-01-13T03:00:28;146.20;;;16.63;;
10957;SDS011;5531;42.570;23.676;2023-01-13T03:03:00;83.45;;;14.00;;
10957;SDS011;5531;42.570;23.676;2023-01-13T03:05:30;591.22;;;33.38;;
10957;SDS011;5531;42.570;23.676;2023-01-13T03:08:10;287.65;;;22.67;;
10957;SDS011;5531;42.570;23.676;2023-01-13T03:10:49;252.32;;;31.50;;
10957;SDS011;5531;42.570;23.676;2023-01-13T03:13:33;417.85;;;38.75;;
10957;SDS011;5531;42.570;23.676;2023-01-13T03:16:29;20.77;;;18.88;;
10957;SDS011;5531;42.570;23.676;2023-01-13T03:19:10;364.55;;;26.35;;
10957;SDS011;5531;42.570;23.676;2023-01-13T03:21:45;752.30;;;45.47;;
10957;SDS011;5531;42.570;23.676;2023-01-13T03:24:24;433.33;;;31.38;;
10957;SDS011;5531;42.570;23.676;2023-01-13T03:26:59;309.05;;;30.10;;
10957;SDS011;5531;42.570;23.676;2023-01-13T03:29:32;85.97;;;14.82;;
10957;SDS011;5531;42.570;23.676;2023-01-13T03:32:07;260.35;;;21.95;;
10957;SDS011;5531;42.570;23.676;2023-01-13T03:34:45;422.17;;;31.40;;
10957;SDS011;5531;42.570;23.676;2023-01-13T03:37:18;255.20;;;23.08;;
10957;SDS011;5531;42.570;23.676;2023-01-13T03:39:51;171.73;;;21.55;;
10957;SDS011;5531;42.570;23.676;2023-01-13T03:42:25;46.85;;;14.88;;
10957;SDS011;5531;42.570;23.676;2023-01-13T03:44:59;44.25;;;12.48;;
10957;SDS011;5531;42.570;23.676;2023-01-13T03:47:32;13.48;;;11.20;;
10957;SDS011;5531;42.570;23.676;2023-01-13T03:50:09;15.25;;;11.77;;
10957;SDS011;5531;42.570;23.676;2023-01-13T03:52:42;100.50;;;18.17;;
10957;SDS011;5531;42.570;23.676;2023-01-13T03:55:16;17.60;;;15.90;;
10957;SDS011;5531;42.570;23.676;2023-01-13T03:57:49;10.95;;;9.77;;
10957;SDS011;5531;42.570;23.676;2023-01-13T04:00:24;11.85;;;10.13;;
10957;SDS011;5531;42.570;23.676;2023-01-13T04:02:58;11.35;;;9.48;;
10957;SDS011;5531;42.570;23.676;2023-01-13T04:05:39;45.88;;;10.88;;
10957;SDS011;5531;42.570;23.676;2023-01-13T04:08:15;38.28;;;16.30;;
10957;SDS011;5531;42.570;23.676;2023-01-13T04:10:49;30.83;;;27.77;;
10957;SDS011;5531;42.570;23.676;2023-01-13T04:13:23;52.45;;;25.40;;
10957;SDS011;5531;42.570;23.676;2023-01-13T04:15:57;17.33;;;15.52;;
10957;SDS011;5531;42.570;23.676;2023-01-13T04:18:27;19.70;;;17.80;;
10957;SDS011;5531;42.570;23.676;2023-01-13T04:21:00;14.35;;;12.85;;
10957;SDS011;5531;42.570;23.676;2023-01-13T04:23:29;15.95;;;13.93;;
10957;SDS011;5531;42.570;23.676;2023-01-13T04:25:58;15.45;;;10.88;;
10957;SDS011;5531;42.570;23.676;2023-01-13T04:28:27;27.05;;;24.65;;
10957;SDS011;5531;42.570;23.676;2023-01-13T04:30:57;13.50;;;12.20;;
10957;SDS011;5531;42.570;23.676;2023-01-13T04:33:26;18.88;;;11.77;;
10957;SDS011;5531;42.570;23.676;2023-01-13T04:35:55;10.65;;;9.40;;
10957;SDS011;5531;42.570;23.676;2023-01-13T04:38:27;37.40;;;15.45;;
10957;SDS011;5531;42.570;23.676;2023-01-13T04:40:56;12.75;;;10.48;;
10957;SDS011;5531;42.570;23.676;2023-01-13T04:43:25;11.75;;;9.48;;
10957;SDS011;5531;42.570;23.676;2023-01-13T04:45:54;16.75;;;11.50;;
10957;SDS011;5531;42.570;23.676;2023-01-13T04:48:23;20.38;;;10.68;;
10957;SDS011;5531;42.570;23.676;2023-01-13T04:50:52;13.23;;;10.85;;
10957;SDS011;5531;42.570;23.676;2023-01-13T04:53:22;15.32;;;12.05;;
10957;SDS011;5531;42.570;23.676;2023-01-13T04:55:53;13.60;;;12.20;;
10957;SDS011;5531;42.570;23.676;2023-01-13T04:58:22;18.48;;;10.60;;
10957;SDS011;5531;42.570;23.676;2023-01-13T05:00:51;12.07;;;9.45;;
10957;SDS011;5531;42.570;23.676;2023-01-13T05:03:20;14.30;;;10.05;;
10957;SDS011;5531;42.570;23.676;2023-01-13T05:05:51;13.20;;;11.80;;
10957;SDS011;5531;42.570;23.676;2023-01-13T05:08:20;34.22;;;11.70;;
10957;SDS011;5531;42.570;23.676;2023-01-13T05:10:49;28.73;;;12.07;;
10957;SDS011;5531;42.570;23.676;2023-01-13T05:13:20;33.92;;;11.52;;
10957;SDS011;5531;42.570;23.676;2023-01-13T05:16:02;66.22;;;14.95;;
10957;SDS011;5531;42.570;23.676;2023-01-13T05:18:43;58.60;;;13.50;;
10957;SDS011;5531;42.570;23.676;2023-01-13T05:21:12;22.42;;;12.23;;
10957;SDS011;5531;42.570;23.676;2023-01-13T05:23:53;267.95;;;22.63;;
10957;SDS011;5531;42.570;23.676;2023-01-13T05:26:34;169.35;;;24.70;;
10957;SDS011;5531;42.570;23.676;2023-01-13T05:29:06;198.50;;;20.52;;
10957;SDS011;5531;42.570;23.676;2023-01-13T05:31:35;113.97;;;17.90;;
10957;SDS011;5531;42.570;23.676;2023-01-13T05:34:04;50.65;;;15.57;;
10957;SDS011;5531;42.570;23.676;2023-01-13T05:36:33;125.63;;;21.80;;
10957;SDS011;5531;42.570;23.676;2023-01-13T05:39:02;67.05;;;31.27;;
10957;SDS011;5531;42.570;23.676;2023-01-13T05:41:32;514.25;;;43.95;;
10957;SDS011;5531;42.570;23.676;2023-01-13T05:44:15;230.85;;;25.27;;
10957;SDS011;5531;42.570;23.676;2023-01-13T05:46:44;464.48;;;39.85;;
10957;SDS011;5531;42.570;23.676;2023-01-13T05:49:13;445.08;;;45.35;;
10957;SDS011;5531;42.570;23.676;2023-01-13T05:51:42;232.25;;;31.67;;
10957;SDS011;5531;42.570;23.676;2023-01-13T05:54:11;142.23;;;22.38;;
10957;SDS011;5531;42.570;23.676;2023-01-13T05:56:41;368.38;;;30.08;;
10957;SDS011;5531;42.570;23.676;2023-01-13T05:59:10;188.27;;;29.15;;
10957;SDS011;5531;42.570;23.676;2023-01-13T06:01:41;442.83;;;36.53;;
10957;SDS011;5531;42.570;23.676;2023-01-13T06:04:10;291.15;;;32.80;;
10957;SDS011;5531;42.570;23.676;2023-01-13T06:06:39;191.38;;;22.80;;
10957;SDS011;5531;42.570;23.676;2023-01-13T06:09:09;497.90;;;33.92;;
10957;SDS011;5531;42.570;23.676;2023-01-13T06:11:38;294.33;;;26.90;;
10957;SDS011;5531;42.570;23.676;2023-01-13T06:14:07;136.55;;;18.85;;
10957;SDS011;5531;42.570;23.676;2023-01-13T06:16:36;75.63;;;18.30;;
10957;SDS011;5531;42.570;23.676;2023-01-13T06:19:07;231.18;;;22.27;;
10957;SDS011;5531;42.570;23.676;2023-01-13T06:21:37;99.63;;;17.17;;
10957;SDS011;5531;42.570;23.676;2023-01-13T06:24:07;376.40;;;28.75;;
10957;SDS011;5531;42.570;23.676;2023-01-13T06:26:37;41.72;;;14.45;;
10957;SDS011;5531;42.570;23.676;2023-01-13T06:29:08;70.40;;;15.38;;
10957;SDS011;5531;42.570;23.676;2023-01-13T06:31:39;615.38;;;40.22;;
10957;SDS011;5531;42.570;23.676;2023-01-13T06:34:11;405.60;;;30.50;;
10957;SDS011;5531;42.570;23.676;2023-01-13T06:36:42;199.27;;;22.60;;
10957;SDS011;5531;42.570;23.676;2023-01-13T06:39:17;131.38;;;30.88;;
10957;SDS011;5531;42.570;23.676;2023-01-13T06:41:50;393.52;;;37.10;;
10957;SDS011;5531;42.570;23.676;2023-01-13T06:44:33;26.80;;;23.90;;
10957;SDS011;5531;42.570;23.676;2023-01-13T06:47:02;28.38;;;20.05;;
10957;SDS011;5531;42.570;23.676;2023-01-13T06:49:34;215.07;;;26.20;;
10957;SDS011;5531;42.570;23.676;2023-01-13T06:52:03;32.38;;;18.55;;
10957;SDS011;5531;42.570;23.676;2023-01-13T06:54:32;24.95;;;14.27;;
10957;SDS011;5531;42.570;23.676;2023-01-13T06:57:02;25.55;;;15.18;;
10957;SDS011;5531;42.570;23.676;2023-01-13T06:59:31;32.15;;;13.70;;
10957;SDS011;5531;42.570;23.676;2023-01-13T07:02:01;36.25;;;15.43;;
10957;SDS011;5531;42.570;23.676;2023-01-13T07:04:30;16.67;;;13.20;;
10957;SDS011;5531;42.570;23.676;2023-01-13T07:07:01;31.75;;;27.25;;
10957;SDS011;5531;42.570;23.676;2023-01-13T07:09:32;40.58;;;36.75;;
10957;SDS011;5531;42.570;23.676;2023-01-13T07:12:01;50.15;;;45.45;;
10957;SDS011;5531;42.570;23.676;2023-01-13T07:14:30;17.50;;;15.25;;
10957;SDS011;5531;42.570;23.676;2023-01-13T07:17:14;15.45;;;13.60;;
10957;SDS011;5531;42.570;23.676;2023-01-13T07:19:49;15.20;;;13.15;;
10957;SDS011;5531;42.570;23.676;2023-01-13T07:22:21;14.45;;;12.20;;
10957;SDS011;5531;42.570;23.676;2023-01-13T07:24:50;16.10;;;13.73;;
10957;SDS011;5531;42.570;23.676;2023-01-13T07:27:19;14.68;;;11.88;;
10957;SDS011;5531;42.570;23.676;2023-01-13T07:29:49;16.77;;;14.07;;
10957;SDS011;5531;42.570;23.676;2023-01-13T07:32:17;14.00;;;11.63;;
10957;SDS011;5531;42.570;23.676;2023-01-13T07:34:47;15.77;;;13.70;;
10957;SDS011;5531;42.570;23.676;2023-01-13T07:37:16;13.77;;;12.18;;
10957;SDS011;5531;42.570;23.676;2023-01-13T07:39:47;22.13;;;19.90;;
10957;SDS011;5531;42.570;23.676;2023-01-13T07:42:16;16.48;;;14.70;;
10957;SDS011;5531;42.570;23.676;2023-01-13T07:44:58;15.68;;;14.07;;
10957;SDS011;5531;42.570;23.676;2023-01-13T07:47:27;32.22;;;29.33;;
10957;SDS011;5531;42.570;23.676;2023-01-13T07:49:56;28.88;;;26.17;;
10957;SDS011;5531;42.570;23.676;2023-01-13T07:52:25;40.65;;;37.05;;
10957;SDS011;5531;42.570;23.676;2023-01-13T07:54:57;28.80;;;25.98;;
10957;SDS011;5531;42.570;23.676;2023-01-13T07:57:26;20.17;;;18.13;;
10957;SDS011;5531;42.570;23.676;2023-01-13T07:59:55;13.35;;;11.25;;
10957;SDS011;5531;42.570;23.676;2023-01-13T08:02:24;12.43;;;10.60;;
10957;SDS011;5531;42.570;23.676;2023-01-13T08:04:53;14.60;;;11.60;;
10957;SDS011;5531;42.570;23.676;2023-01-13T08:07:22;23.58;;;21.27;;
10957;SDS011;5531;42.570;23.676;2023-01-13T08:09:51;14.75;;;11.88;;
10957;SDS011;5531;42.570;23.676;2023-01-13T08:12:23;11.55;;;10.18;;
10957;SDS011;5531;42.570;23.676;2023-01-13T08:15:05;12.80;;;10.55;;
10957;SDS011;5531;42.570;23.676;2023-01-13T08:17:36;16.25;;;13.63;;
10957;SDS011;5531;42.570;23.676;2023-01-13T08:20:06;14.10;;;11.15;;
10957;SDS011;5531;42.570;23.676;2023-01-13T08:22:36;12.27;;;10.98;;
10957;SDS011;5531;42.570;23.676;2023-01-13T08:25:05;16.95;;;15.35;;
10957;SDS011;5531;42.570;23.676;2023-01-13T08:27:37;12.30;;;11.00;;
10957;SDS011;5531;42.570;23.676;2023-01-13T08:30:07;12.15;;;10.93;;
10957;SDS011;5531;42.570;23.676;2023-01-13T08:32:37;13.15;;;11.85;;
10957;SDS011;5531;42.570;23.676;2023-01-13T08:35:07;15.82;;;14.23;;
10957;SDS011;5531;42.570;23.676;2023-01-13T08:37:36;15.20;;;13.60;;
10957;SDS011;5531;42.570;23.676;2023-01-13T08:40:06;11.32;;;10.07;;
10957;SDS011;5531;42.570;23.676;2023-01-13T08:42:39;11.68;;;9.93;;
10957;SDS011;5531;42.570;23.676;2023-01-13T08:45:09;12.82;;;10.20;;
10957;SDS011;5531;42.570;23.676;2023-01-13T08:47:38;10.40;;;9.02;;
10957;SDS011;5531;42.570;23.676;2023-01-13T08:50:08;10.60;;;9.35;;
10957;SDS011;5531;42.570;23.676;2023-01-13T08:52:38;10.30;;;9.02;;
10957;SDS011;5531;42.570;23.676;2023-01-13T08:55:07;9.15;;;8.25;;
10957;SDS011;5531;42.570;23.676;2023-01-13T08:57:39;10.48;;;9.38;;
10957;SDS011;5531;42.570;23.676;2023-01-13T09:00:09;9.20;;;8.20;;
10957;SDS011;5531;42.570;23.676;2023-01-13T09:02:41;9.98;;;8.98;;
10957;SDS011;5531;42.570;23.676;2023-01-13T09:05:10;7.18;;;6.47;;
10957;SDS011;5531;42.570;23.676;2023-01-13T09:07:39;7.05;;;6.43;;
10957;SDS011;5531;42.570;23.676;2023-01-13T09:10:08;7.60;;;6.85;;
10957;SDS011;5531;42.570;23.676;2023-01-13T09:12:40;6.78;;;6.18;;
10957;SDS011;5531;42.570;23.676;2023-01-13T09:15:22;8.40;;;7.50;;
10957;SDS011;5531;42.570;23.676;2023-01-13T09:17:51;8.65;;;7.80;;
10957;SDS011;5531;42.570;23.676;2023-01-13T09:20:20;8.88;;;7.82;;
10957;SDS011;5531;42.570;23.676;2023-01-13T09:22:49;9.57;;;8.57;;
10957;SDS011;5531;42.570;23.676;2023-01-13T09:25:18;9.77;;;8.18;;
10957;SDS011;5531;42.570;23.676;2023-01-13T09:27:49;10.88;;;9.15;;
10957;SDS011;5531;42.570;23.676;2023-01-13T09:30:18;8.60;;;7.70;;
10957;SDS011;5531;42.570;23.676;2023-01-13T09:32:47;9.35;;;8.40;;
10957;SDS011;5531;42.570;23.676;2023-01-13T09:35:36;11.02;;;9.98;;
10957;SDS011;5531;42.570;23.676;2023-01-13T09:38:03;10.48;;;8.90;;
10957;SDS011;5531;42.570;23.676;2023-01-13T09:40:33;9.32;;;7.75;;
10957;SDS011;5531;42.570;23.676;2023-01-13T09:43:10;8.90;;;8.00;;
10957;SDS011;5531;42.570;23.676;2023-01-13T09:45:58;8.35;;;6.18;;
10957;SDS011;5531;42.570;23.676;2023-01-13T09:48:52;6.30;;;5.30;;
10957;SDS011;5531;42.570;23.676;2023-01-13T09:51:26;8.15;;;6.95;;
10957;SDS011;5531;42.570;23.676;2023-01-13T09:54:02;5.63;;;4.80;;
10957;SDS011;5531;42.570;23.676;2023-01-13T09:56:38;5.18;;;4.60;;
10957;SDS011;5531;42.570;23.676;2023-01-13T09:59:10;5.35;;;4.68;;
10957;SDS011;5531;42.570;23.676;2023-01-13T10:01:41;5.20;;;4.70;;
10957;SDS011;5531;42.570;23.676;2023-01-13T10:04:16;10.23;;;9.32;;
10957;SDS011;5531;42.570;23.676;2023-01-13T10:06:46;5.40;;;4.85;;
10957;SDS011;5531;42.570;23.676;2023-01-13T10:09:21;4.70;;;4.15;;
10957;SDS011;5531;42.570;23.676;2023-01-13T10:11:58;4.18;;;3.78;;
10957;SDS011;5531;42.570;23.676;2023-01-13T10:14:44;4.00;;;3.60;;
10957;SDS011;5531;42.570;23.676;2023-01-13T10:17:20;6.03;;;5.07;;
10957;SDS011;5531;42.570;23.676;2023-01-13T10:19:57;4.50;;;4.10;;
10957;SDS011;5531;42.570;23.676;2023-01-13T10:25:24;6.22;;;5.63;;
10957;SDS011;5531;42.570;23.676;2023-01-13T10:28:01;5.70;;;5.15;;
10957;SDS011;5531;42.570;23.676;2023-01-13T10:30:39;5.55;;;4.40;;
10957;SDS011;5531;42.570;23.676;2023-01-13T10:33:10;5.05;;;4.55;;
10957;SDS011;5531;42.570;23.676;2023-01-13T10:35:52;4.22;;;3.83;;
10957;SDS011;5531;42.570;23.676;2023-01-13T10:38:24;5.25;;;4.75;;
10957;SDS011;5531;42.570;23.676;2023-01-13T10:40:56;6.15;;;5.55;;
10957;SDS011;5531;42.570;23.676;2023-01-13T10:43:29;6.43;;;5.65;;
10957;SDS011;5531;42.570;23.676;2023-01-13T10:46:03;6.57;;;5.75;;
10957;SDS011;5531;42.570;23.676;2023-01-13T10:48:35;7.20;;;6.10;;
10957;SDS011;5531;42.570;23.676;2023-01-13T10:51:10;5.93;;;4.88;;
10957;SDS011;5531;42.570;23.676;2023-01-13T10:53:50;7.53;;;5.10;;
10957;SDS011;5531;42.570;23.676;2023-01-13T10:56:22;6.75;;;4.93;;
10957;SDS011;5531;42.570;23.676;2023-01-13T10:59:06;5.35;;;4.85;;
10957;SDS011;5531;42.570;23.676;2023-01-13T11:01:49;5.43;;;4.93;;
10957;SDS011;5531;42.570;23.676;2023-01-13T11:04:31;6.60;;;5.25;;
10957;SDS011;5531;42.570;23.676;2023-01-13T11:07:03;6.05;;;5.45;;
10957;SDS011;5531;42.570;23.676;2023-01-13T11:09:45;6.60;;;5.50;;
10957;SDS011;5531;42.570;23.676;2023-01-13T11:12:28;7.80;;;5.47;;
10957;SDS011;5531;42.570;23.676;2023-01-13T11:14:59;7.15;;;6.00;;
10957;SDS011;5531;42.570;23.676;2023-01-13T11:17:36;7.70;;;5.32;;
10957;SDS011;5531;42.570;23.676;2023-01-13T11:20:14;6.95;;;6.20;;
10957;SDS011;5531;42.570;23.676;2023-01-13T11:22:54;8.18;;;6.10;;
10957;SDS011;5531;42.570;23.676;2023-01-13T11:25:25;5.70;;;5.18;;
10957;SDS011;5531;42.570;23.676;2023-01-13T11:28:15;6.20;;;5.55;;
10957;SDS011;5531;42.570;23.676;2023-01-13T11:30:57;5.47;;;4.97;;
10957;SDS011;5531;42.570;23.676;2023-01-13T11:33:37;6.55;;;5.88;;
10957;SDS011;5531;42.570;23.676;2023-01-13T11:36:12;8.73;;;7.13;;
10957;SDS011;5531;42.570;23.676;2023-01-13T11:38:45;7.13;;;6.30;;
10957;SDS011;5531;42.570;23.676;2023-01-13T11:41:25;7.05;;;5.78;;
10957;SDS011;5531;42.570;23.676;2023-01-13T11:44:02;6.45;;;5.75;;
10957;SDS011;5531;42.570;23.676;2023-01-13T11:46:40;6.93;;;5.90;;
10957;SDS011;5531;42.570;23.676;2023-01-13T11:49:14;7.30;;;6.30;;
10957;SDS011;5531;42.570;23.676;2023-01-13T11:51:51;5.63;;;4.90;;
10957;SDS011;5531;42.570;23.676;2023-01-13T11:54:29;6.40;;;5.80;;
10957;SDS011;5531;42.570;23.676;2023-01-13T12:00:25;7.78;;;5.70;;
10957;SDS011;5531;42.570;23.676;2023-01-13T12:06:06;7.95;;;7.00;;
10957;SDS011;5531;42.570;23.676;2023-01-13T12:08:46;8.15;;;6.65;;
10957;SDS011;5531;42.570;23.676;2023-01-13T12:11:50;6.68;;;5.95;;
10957;SDS011;5531;42.570;23.676;2023-01-13T12:14:41;8.23;;;6.45;;
10957;SDS011;5531;42.570;23.676;2023-01-13T12:17:25;7.32;;;6.30;;
10957;SDS011;5531;42.570;23.676;2023-01-13T12:20:00;6.80;;;6.10;;
10957;SDS011;5531;42.570;23.676;2023-01-13T12:22:49;8.20;;;5.40;;
10957;SDS011;5531;42.570;23.676;2023-01-13T12:25:25;6.00;;;5.40;;
10957;SDS011;5531;42.570;23.676;2023-01-13T12:28:02;5.45;;;4.95;;
10957;SDS011;5531;42.570;23.676;2023-01-13T12:30:39;5.13;;;4.63;;
10957;SDS011;5531;42.570;23.676;2023-01-13T12:33:15;5.15;;;4.63;;
10957;SDS011;5531;42.570;23.676;2023-01-13T12:35:55;5.97;;;5.07;;
10957;SDS011;5531;42.570;23.676;2023-01-13T12:38:34;5.50;;;5.00;;
10957;SDS011;5531;42.570;23.676;2023-01-13T12:41:08;6.05;;;5.45;;
10957;SDS011;5531;42.570;23.676;2023-01-13T12:43:45;6.00;;;4.95;;
10957;SDS011;5531;42.570;23.676;2023-01-13T12:46:39;5.50;;;5.00;;
10957;SDS011;5531;42.570;23.676;2023-01-13T12:49:18;6.95;;;5.50;;
10957;SDS011;5531;42.570;23.676;2023-01-13T12:52:03;6.07;;;5.20;;
10957;SDS011;5531;42.570;23.676;2023-01-13T12:57:59;6.35;;;5.30;;
10957;SDS011;5531;42.570;23.676;2023-01-13T13:00:53;5.90;;;5.00;;
10957;SDS011;5531;42.570;23.676;2023-01-13T13:03:27;6.72;;;5.20;;
10957;SDS011;5531;42.570;23.676;2023-01-13T13:06:02;5.32;;;4.82;;
10957;SDS011;5531;42.570;23.676;2023-01-13T13:08:44;5.60;;;5.05;;
10957;SDS011;5531;42.570;23.676;2023-01-13T13:23:27;5.22;;;4.70;;
10957;SDS011;5531;42.570;23.676;2023-01-13T13:26:05;5.93;;;4.65;;
10957;SDS011;5531;42.570;23.676;2023-01-13T13:35:08;5.28;;;4.78;;
10957;SDS011;5531;42.570;23.676;2023-01-13T13:37:55;5.00;;;4.50;;
10957;SDS011;5531;42.570;23.676;2023-01-13T13:40:46;6.35;;;5.13;;
10957;SDS011;5531;42.570;23.676;2023-01-13T13:43:27;4.75;;;4.35;;
10957;SDS011;5531;42.570;23.676;2023-01-13T13:46:24;5.72;;;5.13;;
10957;SDS011;5531;42.570;23.676;2023-01-13T13:49:07;5.78;;;5.18;;
10957;SDS011;5531;42.570;23.676;2023-01-13T13:51:39;5.97;;;4.97;;
10957;SDS011;5531;42.570;23.676;2023-01-13T13:54:15;4.70;;;4.28;;
10957;SDS011;5531;42.570;23.676;2023-01-13T13:56:47;5.43;;;4.93;;
10957;SDS011;5531;42.570;23.676;2023-01-13T13:59:18;6.30;;;5.45;;
10957;SDS011;5531;42.570;23.676;2023-01-13T14:01:51;6.63;;;5.30;;
10957;SDS011;5531;42.570;23.676;2023-01-13T14:04:25;11.95;;;10.30;;
10957;SDS011;5531;42.570;23.676;2023-01-13T14:07:00;23.20;;;19.88;;
10957;SDS011;5531;42.570;23.676;2023-01-13T14:09:38;7.70;;;6.90;;
10957;SDS011;5531;42.570;23.676;2023-01-13T14:12:15;7.07;;;5.28;;
10957;SDS011;5531;42.570;23.676;2023-01-13T14:14:46;7.20;;;4.90;;
10957;SDS011;5531;42.570;23.676;2023-01-13T14:17:20;5.93;;;5.00;;
10957;SDS011;5531;42.570;23.676;2023-01-13T14:19:52;5.55;;;5.00;;
10957;SDS011;5531;42.570;23.676;2023-01-13T14:22:29;5.85;;;5.25;;
10957;SDS011;5531;42.570;23.676;2023-01-13T14:24:59;5.13;;;4.63;;
10957;SDS011;5531;42.570;23.676;2023-01-13T14:27:28;5.70;;;5.10;;
10957;SDS011;5531;42.570;23.676;2023-01-13T14:29:58;8.70;;;4.93;;
10957;SDS011;5531;42.570;23.676;2023-01-13T14:32:30;5.50;;;4.80;;
10957;SDS011;5531;42.570;23.676;2023-01-13T14:35:04;5.50;;;4.90;;
10957;SDS011;5531;42.570;23.676;2023-01-13T14:37:37;6.07;;;5.47;;
10957;SDS011;5531;42.570;23.676;2023-01-13T14:43:13;7.40;;;5.88;;
10957;SDS011;5531;42.570;23.676;2023-01-13T14:45:52;6.93;;;6.22;;
10957;SDS011;5531;42.570;23.676;2023-01-13T14:48:25;6.70;;;5.90;;
10957;SDS011;5531;42.570;23.676;2023-01-13T14:51:00;7.53;;;6.10;;
10957;SDS011;5531;42.570;23.676;2023-01-13T14:53:37;7.65;;;5.93;;
10957;SDS011;5531;42.570;23.676;2023-01-13T15:02:00;6.18;;;5.57;;
10957;SDS011;5531;42.570;23.676;2023-01-13T15:04:31;6.30;;;5.38;;
10957;SDS011;5531;42.570;23.676;2023-01-13T15:07:02;7.70;;;6.75;;
10957;SDS011;5531;42.570;23.676;2023-01-13T15:09:37;7.88;;;6.00;;
10957;SDS011;5531;42.570;23.676;2023-01-13T15:12:13;6.88;;;5.70;;
10957;SDS011;5531;42.570;23.676;2023-01-13T15:14:47;6.57;;;5.00;;
10957;SDS011;5531;42.570;23.676;2023-01-13T15:17:17;5.60;;;4.88;;
10957;SDS011;5531;42.570;23.676;2023-01-13T15:19:46;7.18;;;5.03;;
10957;SDS011;5531;42.570;23.676;2023-01-13T15:22:15;5.63;;;5.00;;
10957;SDS011;5531;42.570;23.676;2023-01-13T15:24:47;5.93;;;5.32;;
10957;SDS011;5531;42.570;23.676;2023-01-13T15:27:17;7.18;;;5.20;;
10957;SDS011;5531;42.570;23.676;2023-01-13T15:29:49;7.78;;;6.03;;
10957;SDS011;5531;42.570;23.676;2023-01-13T15:32:19;6.50;;;5.10;;
10957;SDS011;5531;42.570;23.676;2023-01-13T15:34:48;6.20;;;5.45;;
10957;SDS011;5531;42.570;23.676;2023-01-13T15:37:18;5.78;;;5.28;;
10957;SDS011;5531;42.570;23.676;2023-01-13T15:39:51;6.00;;;5.22;;
10957;SDS011;5531;42.570;23.676;2023-01-13T15:42:20;7.20;;;6.18;;
10957;SDS011;5531;42.570;23.676;2023-01-13T15:45:01;6.15;;;5.47;;
10957;SDS011;5531;42.570;23.676;2023-01-13T15:47:43;7.07;;;6.00;;
10957;SDS011;5531;42.570;23.676;2023-01-13T15:50:13;7.32;;;6.22;;